createdAt,value
2022-11-29T00:00:29.275Z,100690.42
2022-11-29T00:03:20.232Z,100690.23
2022-11-29T00:06:14.496Z,100691.47
2022-11-29T00:09:08.313Z,100688.31
2022-11-29T00:12:13.686Z,100688.31
2022-11-29T00:15:00.542Z,100685.67
2022-11-29T00:17:48.279Z,100684.61
2022-11-29T00:20:35.452Z,100688.48
2022-11-29T00:23:22.467Z,100689.36
2022-11-29T00:26:09.230Z,100685.84
2022-11-29T00:28:55.886Z,100689.36
2022-11-29T00:31:42.902Z,100687.25
2022-11-29T00:34:29.255Z,100687.77
2022-11-29T00:37:15.734Z,100689.53
2022-11-29T00:40:02.351Z,100691.30
2022-11-29T00:42:49.010Z,100684.61
2022-11-29T00:45:35.563Z,100688.66
2022-11-29T00:48:22.226Z,100689.02
2022-11-29T00:51:09.136Z,100686.02
2022-11-29T00:53:55.941Z,100686.38
2022-11-29T00:56:42.335Z,100679.88
2022-11-29T00:59:30.443Z,100682.51
2022-11-29T01:02:17.339Z,100683.55
2022-11-29T01:05:04.823Z,100679.34
2022-11-29T01:07:51.804Z,100677.94
2022-11-29T01:10:38.654Z,100681.46
2022-11-29T01:13:25.157Z,100679.35
2022-11-29T01:16:11.963Z,100678.47
2022-11-29T01:18:58.779Z,100682.34
2022-11-29T01:21:45.707Z,100686.02
2022-11-29T01:24:32.383Z,100686.38
2022-11-29T01:27:18.917Z,100686.20
2022-11-29T01:30:06.992Z,100682.88
2022-11-29T01:32:53.837Z,100680.59
2022-11-29T01:35:40.232Z,100681.12
2022-11-29T01:38:26.957Z,100677.77
2022-11-29T01:41:16.958Z,100678.13
2022-11-29T01:44:07.552Z,100683.75
2022-11-29T01:46:54.484Z,100684.45
2022-11-29T01:49:45.480Z,100684.98
2022-11-29T01:52:32.375Z,100685.67
2022-11-29T01:55:18.890Z,100687.08
2022-11-29T01:58:06.673Z,100691.65
2022-11-29T02:00:53.282Z,100684.27
2022-11-29T02:03:39.987Z,100680.41
2022-11-29T02:06:27.499Z,100679.18
2022-11-29T02:09:21.950Z,100678.83
2022-11-29T02:12:33.085Z,100681.82
2022-11-29T02:15:33.004Z,100679.71
2022-11-29T02:18:23.460Z,100684.63
2022-11-29T02:21:39.436Z,100681.82
2022-11-29T02:24:45.243Z,100681.64
2022-11-29T02:27:51.054Z,100679.89
2022-11-29T02:31:22.305Z,100681.29
2022-11-29T02:34:24.065Z,100687.79
2022-11-29T02:37:46.521Z,100688.14
2022-11-29T02:40:43.652Z,100690.42
2022-11-29T02:43:52.288Z,100685.67
2022-11-29T02:46:57.589Z,100692.17
2022-11-29T02:50:21.801Z,100696.39
2022-11-29T02:53:26.819Z,100699.73
2022-11-29T02:56:22.470Z,100703.94
2022-11-29T02:59:47.173Z,100701.30
2022-11-29T03:02:45.912Z,100706.23
2022-11-29T03:05:38.716Z,100706.05
2022-11-29T03:08:34.143Z,100706.40
2022-11-29T03:11:26.972Z,100711.14
2022-11-29T03:14:27.204Z,100710.27
2022-11-29T03:17:32.095Z,100709.73
2022-11-29T03:20:29.492Z,100715.19
2022-11-29T03:23:21.813Z,100717.63
2022-11-29T03:26:14.962Z,100717.46
2022-11-29T03:29:13.796Z,100720.64
2022-11-29T03:32:05.368Z,100716.94
2022-11-29T03:35:08.041Z,100722.02
2022-11-29T03:37:59.715Z,100722.02
2022-11-29T03:41:29.229Z,100722.38
2022-11-29T03:44:20.511Z,100722.55
2022-11-29T03:47:12.985Z,100720.45
2022-11-29T03:50:07.184Z,100724.48
2022-11-29T03:52:54.974Z,100720.98
2022-11-29T03:55:56.969Z,100719.40
2022-11-29T03:58:55.760Z,100724.49
2022-11-29T04:02:07.352Z,100723.61
2022-11-29T04:05:12.214Z,100718.52
2022-11-29T04:08:16.701Z,100723.08
2022-11-29T04:11:31.272Z,100720.09
2022-11-29T04:14:39.894Z,100722.21
2022-11-29T04:18:06.958Z,100724.14
2022-11-29T04:20:56.930Z,100726.95
2022-11-29T04:24:08.014Z,100729.76
2022-11-29T04:27:13.710Z,100734.86
2022-11-29T04:30:20.649Z,100733.27
2022-11-29T04:33:22.410Z,100736.08
2022-11-29T04:36:13.014Z,100739.23
2022-11-29T04:39:20.832Z,100743.63
2022-11-29T04:42:43.970Z,100742.92
2022-11-29T04:45:41.229Z,100743.27
2022-11-29T04:48:38.897Z,100748.71
2022-11-29T04:51:37.696Z,100749.41
2022-11-29T04:54:54.982Z,100752.05
2022-11-29T04:58:07.437Z,100753.28
2022-11-29T05:01:12.760Z,100753.81
2022-11-29T05:04:08.907Z,100752.94
2022-11-29T05:07:01.749Z,100752.23
2022-11-29T05:10:00.533Z,100754.34
2022-11-29T05:13:18.690Z,100755.23
2022-11-29T05:16:32.970Z,100757.34
2022-11-29T05:19:41.622Z,100760.48
2022-11-29T05:22:33.343Z,100759.61
2022-11-29T05:25:31.688Z,100763.30
2022-11-29T05:28:37.394Z,100766.98
2022-11-29T05:31:30.005Z,100767.17
2022-11-29T05:34:22.106Z,100766.81
2022-11-29T05:37:11.777Z,100770.16
2022-11-29T05:40:26.254Z,100767.34
2022-11-29T05:43:22.648Z,100768.92
2022-11-29T05:46:14.028Z,100772.27
2022-11-29T05:49:23.126Z,100777.54
2022-11-29T05:52:20.201Z,100780.16
2022-11-29T05:55:22.095Z,100783.34
2022-11-29T05:58:18.784Z,100789.66
2022-11-29T06:01:16.490Z,100789.48
2022-11-29T06:04:14.711Z,100794.75
2022-11-29T06:07:15.095Z,100795.45
2022-11-29T06:10:11.123Z,100796.67
2022-11-29T06:13:08.541Z,100800.20
2022-11-29T06:16:08.312Z,100807.75
2022-11-29T06:19:32.593Z,100808.80
2022-11-29T06:22:37.253Z,100805.97
2022-11-29T06:25:51.117Z,100812.82
2022-11-29T06:29:06.815Z,100817.39
2022-11-29T06:32:05.391Z,100820.90
2022-11-29T06:34:56.679Z,100825.65
2022-11-29T06:37:45.260Z,100824.44
2022-11-29T06:40:33.217Z,100828.99
2022-11-29T06:43:20.015Z,100834.09
2022-11-29T06:46:18.636Z,100832.32
2022-11-29T06:49:27.120Z,100834.46
2022-11-29T06:52:34.334Z,100838.32
2022-11-29T06:55:23.814Z,100839.90
2022-11-29T06:58:20.885Z,100841.48
2022-11-29T07:01:25.677Z,100843.75
2022-11-29T07:04:57.220Z,100841.84
2022-11-29T07:07:44.469Z,100840.25
2022-11-29T07:10:32.622Z,100841.66
2022-11-29T07:13:19.909Z,100839.35
2022-11-29T07:16:16.849Z,100841.45
2022-11-29T07:19:13.398Z,100843.58
2022-11-29T07:22:11.071Z,100846.55
2022-11-29T07:25:27.051Z,100842.16
2022-11-29T07:28:49.956Z,100843.58
2022-11-29T07:32:10.712Z,100842.17
2022-11-29T07:35:33.364Z,100846.21
2022-11-29T07:38:19.659Z,100845.34
2022-11-29T07:41:10.646Z,100850.60
2022-11-29T07:44:16.117Z,100850.94
2022-11-29T07:47:02.901Z,100853.38
2022-11-29T07:49:49.637Z,100853.89
2022-11-29T07:52:36.766Z,100855.64
2022-11-29T07:55:25.698Z,100854.75
2022-11-29T07:58:13.038Z,100859.14
2022-11-29T08:00:59.681Z,100859.98
2022-11-29T08:03:46.255Z,100861.38
2022-11-29T08:06:32.825Z,100864.36
2022-11-29T08:09:19.295Z,100860.13
2022-11-29T08:12:06.112Z,100864.17
2022-11-29T08:14:52.879Z,100864.69
2022-11-29T08:17:39.335Z,100866.09
2022-11-29T08:20:26.229Z,100868.02
2022-11-29T08:23:12.846Z,100874.30
2022-11-29T08:26:01.036Z,100869.94
2022-11-29T08:28:52.214Z,100873.81
2022-11-29T08:31:39.096Z,100874.84
2022-11-29T08:34:26.188Z,100877.66
2022-11-29T08:37:12.990Z,100876.96
2022-11-29T08:40:00.040Z,100875.52
2022-11-29T08:42:46.511Z,100881.49
2022-11-29T08:45:33.030Z,100885.35
2022-11-29T08:48:19.829Z,100885.16
2022-11-29T08:51:06.389Z,100885.84
2022-11-29T08:53:52.976Z,100890.77
2022-11-29T08:59:46.327Z,100894.48
2022-11-29T09:02:33.121Z,100893.27
2022-11-29T09:05:19.922Z,100894.69
2022-11-29T09:08:06.547Z,100896.63
2022-11-29T09:10:53.499Z,100897.84
2022-11-29T09:13:45.192Z,100897.66
2022-11-29T09:16:34.442Z,100900.65
2022-11-29T09:19:20.855Z,100901.88
2022-11-29T09:22:07.768Z,100903.44
2022-11-29T09:24:54.577Z,100903.25
2022-11-29T09:27:41.909Z,100905.54
2022-11-29T09:30:32.173Z,100905.36
2022-11-29T09:33:19.212Z,100907.63
2022-11-29T09:36:10.016Z,100906.59
2022-11-29T09:39:00.818Z,100902.00
2022-11-29T09:42:19.583Z,100902.30
2022-11-29T09:45:18.413Z,100900.98
2022-11-29T09:48:23.606Z,100900.92
2022-11-29T09:51:18.515Z,100894.13
2022-11-29T09:54:17.428Z,100896.84
2022-11-29T09:57:10.428Z,100898.02
2022-11-29T09:59:59.094Z,100900.65
2022-11-29T10:02:58.493Z,100895.17
2022-11-29T10:05:47.627Z,100894.25
2022-11-29T10:08:42.031Z,100899.52
2022-11-29T10:11:33.535Z,100899.15
2022-11-29T10:14:28.604Z,100892.32
2022-11-29T10:17:29.787Z,100890.51
2022-11-29T10:20:20.548Z,100889.49
2022-11-29T10:23:15.452Z,100889.66
2022-11-29T10:26:02.322Z,100892.48
2022-11-29T10:28:50.042Z,100893.17
2022-11-29T10:31:39.236Z,100894.36
2022-11-29T10:34:26.174Z,100892.36
2022-11-29T10:37:20.412Z,100892.32
2022-11-29T10:40:14.709Z,100890.21
2022-11-29T10:43:01.772Z,100892.48
2022-11-29T10:45:56.353Z,100891.19
2022-11-29T10:48:43.166Z,100892.05
2022-11-29T10:51:29.772Z,100883.24
2022-11-29T10:54:31.636Z,100886.95
2022-11-29T10:57:20.492Z,100886.05
2022-11-29T11:00:11.669Z,100884.13
2022-11-29T11:03:16.748Z,100885.36
2022-11-29T11:06:06.578Z,100882.52
2022-11-29T11:08:55.597Z,100887.66
2022-11-29T11:11:45.267Z,100883.11
2022-11-29T11:14:39.454Z,100886.10
2022-11-29T11:17:32.878Z,100882.26
2022-11-29T11:20:20.963Z,100879.23
2022-11-29T11:23:21.174Z,100881.01
2022-11-29T11:26:09.509Z,100884.92
2022-11-29T11:29:00.601Z,100880.55
2022-11-29T11:31:57.078Z,100884.44
2022-11-29T11:35:00.004Z,100884.31
2022-11-29T11:37:55.632Z,100883.30
2022-11-29T11:40:42.184Z,100882.37
2022-11-29T11:43:28.796Z,100886.04
2022-11-29T11:46:18.084Z,100884.39
2022-11-29T11:49:13.057Z,100888.58
2022-11-29T11:51:59.772Z,100890.33
2022-11-29T11:54:49.720Z,100888.09
2022-11-29T11:57:36.466Z,100891.96
2022-11-29T12:03:48.901Z,100894.88
2022-11-29T12:06:40.248Z,100900.64
2022-11-29T12:09:49.654Z,100908.08
2022-11-29T12:12:37.277Z,100911.33
2022-11-29T12:15:32.997Z,100910.44
2022-11-29T12:18:54.173Z,100910.64
2022-11-29T12:21:42.480Z,100909.44
2022-11-29T12:24:44.339Z,100907.10
2022-11-29T12:27:31.854Z,100906.67
2022-11-29T12:30:19.074Z,100906.48
2022-11-29T12:33:24.620Z,100907.85
2022-11-29T12:36:18.707Z,100907.64
2022-11-29T12:39:08.122Z,100907.27
2022-11-29T12:41:57.772Z,100907.29
2022-11-29T12:44:56.236Z,100903.39
2022-11-29T12:48:05.266Z,100907.27
2022-11-29T12:50:54.843Z,100910.39
2022-11-29T12:54:06.519Z,100906.90
2022-11-29T12:57:00.211Z,100915.73
2022-11-29T13:00:06.178Z,100918.40
2022-11-29T13:03:39.143Z,100920.88
2022-11-29T13:06:52.291Z,100916.80
2022-11-29T13:10:03.786Z,100918.69
2022-11-29T13:12:59.343Z,100921.09
2022-11-29T13:15:49.770Z,100919.89
2022-11-29T13:18:53.906Z,100923.30
2022-11-29T13:21:51.640Z,100922.58
2022-11-29T13:24:53.230Z,100918.70
2022-11-29T13:27:42.406Z,100923.48
2022-11-29T13:30:28.831Z,100922.78
2022-11-29T13:33:28.142Z,100925.89
2022-11-29T13:36:44.301Z,100924.78
2022-11-29T13:39:58.279Z,100930.02
2022-11-29T13:42:58.158Z,100935.53
2022-11-29T13:46:08.972Z,100938.30
2022-11-29T13:48:55.741Z,100941.13
2022-11-29T13:51:42.559Z,100940.95
2022-11-29T13:54:31.140Z,100943.96
2022-11-29T13:57:17.921Z,100944.68
2022-11-29T14:00:05.644Z,100950.36
2022-11-29T14:02:52.629Z,100949.46
2022-11-29T14:05:39.678Z,100952.43
2022-11-29T14:09:10.856Z,100955.96
2022-11-29T14:12:03.170Z,100960.49
2022-11-29T14:14:53.253Z,100959.50
2022-11-29T14:17:58.091Z,100964.10
2022-11-29T14:20:45.374Z,100967.16
2022-11-29T14:23:35.077Z,100976.75
2022-11-29T14:26:28.285Z,100974.48
2022-11-29T14:29:53.863Z,100971.52
2022-11-29T14:32:51.825Z,100974.35
2022-11-29T14:35:49.919Z,100981.20
2022-11-29T14:39:07.350Z,100983.82
2022-11-29T14:41:56.565Z,100983.33
2022-11-29T14:44:53.768Z,100985.80
2022-11-29T14:47:48.599Z,100988.47
2022-11-29T14:50:36.758Z,100991.34
2022-11-29T14:53:33.947Z,100992.80
2022-11-29T14:56:33.184Z,100996.04
2022-11-29T14:59:38.558Z,100994.31
2022-11-29T15:02:38.272Z,100997.16
2022-11-29T15:05:33.736Z,101002.60
2022-11-29T15:08:26.357Z,100999.23
2022-11-29T15:11:29.170Z,101002.61
2022-11-29T15:14:39.720Z,101003.17
2022-11-29T15:17:47.710Z,101006.17
2022-11-29T15:20:59.441Z,101007.41
2022-11-29T15:23:45.867Z,101010.24
2022-11-29T15:26:32.854Z,101012.93
2022-11-29T15:29:19.972Z,101013.86
2022-11-29T15:32:06.577Z,101016.87
2022-11-29T15:34:54.817Z,101017.23
2022-11-29T15:37:42.968Z,101014.77
2022-11-29T15:40:39.009Z,101015.46
2022-11-29T15:43:30.508Z,101018.98
2022-11-29T15:46:22.132Z,101020.73
2022-11-29T15:49:25.232Z,101025.16
2022-11-29T15:52:20.312Z,101030.64
2022-11-29T15:55:10.567Z,101033.30
2022-11-29T15:57:57.740Z,101032.77
2022-11-29T16:00:45.208Z,101034.17
2022-11-29T16:03:44.168Z,101034.67
2022-11-29T16:06:40.830Z,101035.47
2022-11-29T16:09:48.509Z,101037.48
2022-11-29T16:12:35.041Z,101038.38
2022-11-29T16:15:39.518Z,101038.20
2022-11-29T16:18:26.001Z,101036.11
2022-11-29T16:21:26.672Z,101036.83
2022-11-29T16:24:18.563Z,101038.95
2022-11-29T16:27:05.723Z,101037.91
2022-11-29T16:29:52.176Z,101038.45
2022-11-29T16:32:41.800Z,101042.14
2022-11-29T16:35:29.630Z,101038.45
2022-11-29T16:38:21.035Z,101042.14
2022-11-29T16:41:14.904Z,101045.16
2022-11-29T16:44:03.389Z,101049.92
2022-11-29T16:46:49.779Z,101051.70
2022-11-29T16:49:36.672Z,101051.52
2022-11-29T16:52:31.078Z,101056.86
2022-11-29T16:55:18.098Z,101057.89
2022-11-29T16:58:04.903Z,101061.98
2022-11-29T17:00:51.655Z,101064.80
2022-11-29T17:03:38.575Z,101069.22
2022-11-29T17:06:25.646Z,101068.16
2022-11-29T17:09:30.593Z,101073.64
2022-11-29T17:12:17.185Z,101073.30
2022-11-29T17:15:04.607Z,101070.13
2022-11-29T17:17:51.328Z,101075.78
2022-11-29T17:20:37.940Z,101077.02
2022-11-29T17:23:24.940Z,101077.37
2022-11-29T17:26:11.751Z,101076.16
2022-11-29T17:28:58.316Z,101074.42
2022-11-29T17:31:45.387Z,101074.95
2022-11-29T17:34:33.407Z,101077.42
2022-11-29T17:37:20.017Z,101080.23
2022-11-29T17:40:07.205Z,101085.52
2022-11-29T17:42:54.665Z,101087.63
2022-11-29T17:45:41.367Z,101092.03
2022-11-29T17:48:33.356Z,101095.20
2022-11-29T17:51:50.741Z,101094.54
2022-11-29T17:54:29.578Z,101099.45
2022-11-29T17:57:16.160Z,101102.61
2022-11-29T18:00:06.581Z,101103.30
2022-11-29T18:02:53.185Z,101103.30
2022-11-29T18:05:39.977Z,101106.83
2022-11-29T18:08:27.007Z,101109.11
2022-11-29T18:11:22.079Z,101113.33
2022-11-29T18:14:10.821Z,101114.21
2022-11-29T18:16:57.871Z,101115.27
2022-11-29T18:19:44.842Z,101118.95
2022-11-29T18:22:31.495Z,101119.14
2022-11-29T18:25:38.075Z,101120.71
2022-11-29T18:28:24.780Z,101126.16
2022-11-29T18:31:12.770Z,101124.92
2022-11-29T18:34:01.345Z,101128.44
2022-11-29T18:36:48.574Z,101129.67
2022-11-29T18:39:35.187Z,101126.86
2022-11-29T18:42:21.919Z,101130.36
2022-11-29T18:45:09.026Z,101130.02
2022-11-29T18:47:55.182Z,101131.08
2022-11-29T18:50:41.890Z,101133.71
2022-11-29T18:53:28.926Z,101133.55
2022-11-29T18:56:20.040Z,101140.58
2022-11-29T18:59:11.084Z,101138.63
2022-11-29T19:01:58.063Z,101145.11
2022-11-29T19:04:45.028Z,101147.90
2022-11-29T19:07:33.327Z,101153.34
2022-11-29T19:10:20.153Z,101153.68
2022-11-29T19:13:06.530Z,101154.71
2022-11-29T19:15:54.527Z,101153.14
2022-11-29T19:18:41.178Z,101158.92
2022-11-29T19:21:30.077Z,101160.48
2022-11-29T19:24:18.096Z,101164.31
2022-11-29T19:27:04.787Z,101168.33
2022-11-29T19:29:51.593Z,101168.14
2022-11-29T19:32:38.456Z,101172.85
2022-11-29T19:35:25.112Z,101175.45
2022-11-29T19:38:11.979Z,101179.84
2022-11-29T19:40:58.773Z,101180.70
2022-11-29T19:43:46.208Z,101181.92
2022-11-29T19:46:40.393Z,101181.20
2022-11-29T19:49:27.015Z,101181.86
2022-11-29T19:52:13.727Z,101183.75
2022-11-29T19:55:00.132Z,101184.09
2022-11-29T19:57:46.560Z,101185.71
2022-11-29T20:00:33.435Z,101186.43
2022-11-29T20:03:19.803Z,101189.45
2022-11-29T20:06:07.509Z,101193.34
2022-11-29T20:08:54.474Z,101190.17
2022-11-29T20:11:41.232Z,101193.52
2022-11-29T20:14:28.020Z,101195.61
2022-11-29T20:17:14.532Z,101194.00
2022-11-29T20:20:00.980Z,101197.46
2022-11-29T20:22:47.864Z,101202.17
2022-11-29T20:25:36.316Z,101205.64
2022-11-29T20:28:22.996Z,101207.02
2022-11-29T20:31:13.447Z,101210.30
2022-11-29T20:34:00.533Z,101211.30
2022-11-29T20:36:56.048Z,101210.35
2022-11-29T20:39:53.097Z,101207.70
2022-11-29T20:43:03.260Z,101206.48
2022-11-29T20:45:49.858Z,101211.23
2022-11-29T20:48:37.490Z,101212.82
2022-11-29T20:51:30.676Z,101213.52
2022-11-29T20:54:17.571Z,101213.85
2022-11-29T20:57:04.271Z,101215.91
2022-11-29T20:59:50.876Z,101219.35
2022-11-29T21:02:38.122Z,101223.72
2022-11-29T21:05:24.825Z,101219.07
2022-11-29T21:08:12.429Z,101223.69
2022-11-29T21:11:07.136Z,101229.04
2022-11-29T21:13:54.879Z,101230.18
2022-11-29T21:16:41.628Z,101232.17
2022-11-29T21:19:28.906Z,101233.34
2022-11-29T21:22:28.919Z,101236.27
2022-11-29T21:25:19.110Z,101236.11
2022-11-29T21:28:10.422Z,101237.86
2022-11-29T21:30:57.362Z,101236.45
2022-11-29T21:33:44.057Z,101242.36
2022-11-29T21:36:30.843Z,101238.60
2022-11-29T21:39:18.004Z,101242.21
2022-11-29T21:42:05.088Z,101245.48
2022-11-29T21:44:51.592Z,101246.27
2022-11-29T21:47:38.608Z,101249.34
2022-11-29T21:50:24.874Z,101250.30
2022-11-29T21:53:11.621Z,101249.67
2022-11-29T21:55:58.918Z,101248.38
2022-11-29T21:58:45.653Z,101249.74
2022-11-29T22:01:33.945Z,101253.67
2022-11-29T22:04:20.611Z,101255.34
2022-11-29T22:07:07.307Z,101255.13
2022-11-29T22:09:54.017Z,101256.26
2022-11-29T22:12:49.413Z,101259.67
2022-11-29T22:15:38.448Z,101258.09
2022-11-29T22:18:27.964Z,101255.50
2022-11-29T22:21:14.489Z,101252.41
2022-11-29T22:24:00.954Z,101252.10
2022-11-29T22:26:47.912Z,101252.66
2022-11-29T22:29:34.618Z,101259.84
2022-11-29T22:32:21.299Z,101257.72
2022-11-29T22:35:08.419Z,101259.38
2022-11-29T22:37:55.124Z,101259.34
2022-11-29T22:40:41.879Z,101259.29
2022-11-29T22:43:29.979Z,101259.42
2022-11-29T22:46:21.221Z,101260.77
2022-11-29T22:49:08.206Z,101262.07
2022-11-29T22:51:55.014Z,101261.63
2022-11-29T22:54:41.415Z,101261.36
2022-11-29T22:57:28.126Z,101264.73
2022-11-29T23:00:14.934Z,101262.73
2022-11-29T23:03:01.704Z,101269.60
2022-11-29T23:05:48.453Z,101266.43
2022-11-29T23:08:35.469Z,101260.87
2022-11-29T23:11:28.633Z,101260.81
2022-11-29T23:14:15.449Z,101259.98
2022-11-29T23:17:02.152Z,101258.36
2022-11-29T23:19:48.937Z,101260.55
2022-11-29T23:22:39.356Z,101260.44
2022-11-29T23:25:25.898Z,101261.34
2022-11-29T23:28:12.497Z,101260.86
2022-11-29T23:30:59.378Z,101262.23
2022-11-29T23:33:46.085Z,101260.75
2022-11-29T23:36:32.997Z,101265.58
2022-11-29T23:39:19.706Z,101259.22
2022-11-29T23:42:06.313Z,101260.03
2022-11-29T23:44:53.226Z,101263.46
2022-11-29T23:47:39.930Z,101264.11
2022-11-29T23:50:26.503Z,101266.48
2022-11-29T23:53:13.779Z,101261.39
2022-11-29T23:56:05.410Z,101264.07
2022-11-29T23:58:52.094Z,101265.75
